sensor_id;sensor_type;location;lat;lon;timestamp;P1;durP1;ratioP1;P2;durP2;ratioP2
52674;SDS011;38569;52.722;6.440;2023-07-31T00:00:28;6.57;;;4.03;;
52674;SDS011;38569;52.722;6.440;2023-07-31T00:02:54;15.52;;;4.10;;
52674;SDS011;38569;52.722;6.440;2023-07-31T00:05:20;6.18;;;4.10;;
52674;SDS011;38569;52.722;6.440;2023-07-31T00:07:46;8.13;;;3.50;;
52674;SDS011;38569;52.722;6.440;2023-07-31T00:10:11;5.15;;;3.30;;
52674;SDS011;38569;52.722;6.440;2023-07-31T00:12:38;6.63;;;3.55;;
52674;SDS011;38569;52.722;6.440;2023-07-31T00:15:05;11.27;;;3.53;;
52674;SDS011;38569;52.722;6.440;2023-07-31T00:17:31;3.97;;;2.95;;
52674;SDS011;38569;52.722;6.440;2023-07-31T00:19:57;5.05;;;3.33;;
52674;SDS011;38569;52.722;6.440;2023-07-31T00:22:23;6.03;;;3.50;;
52674;SDS011;38569;52.722;6.440;2023-07-31T00:24:49;8.10;;;3.33;;
52674;SDS011;38569;52.722;6.440;2023-07-31T00:27:14;7.00;;;3.97;;
52674;SDS011;38569;52.722;6.440;2023-07-31T00:29:40;5.88;;;3.70;;
52674;SDS011;38569;52.722;6.440;2023-07-31T00:32:06;5.00;;;3.28;;
52674;SDS011;38569;52.722;6.440;2023-07-31T00:34:32;10.57;;;4.10;;
52674;SDS011;38569;52.722;6.440;2023-07-31T00:36:58;8.75;;;3.97;;
52674;SDS011;38569;52.722;6.440;2023-07-31T00:39:23;9.55;;;3.67;;
52674;SDS011;38569;52.722;6.440;2023-07-31T00:41:49;7.53;;;4.05;;
52674;SDS011;38569;52.722;6.440;2023-07-31T00:44:15;13.95;;;4.35;;
52674;SDS011;38569;52.722;6.440;2023-07-31T00:46:40;8.85;;;4.13;;
52674;SDS011;38569;52.722;6.440;2023-07-31T00:49:06;5.70;;;2.97;;
52674;SDS011;38569;52.722;6.440;2023-07-31T00:51:32;6.75;;;4.07;;
52674;SDS011;38569;52.722;6.440;2023-07-31T00:53:58;6.82;;;3.55;;
52674;SDS011;38569;52.722;6.440;2023-07-31T00:56:25;10.73;;;3.72;;
52674;SDS011;38569;52.722;6.440;2023-07-31T00:58:51;9.55;;;3.90;;
52674;SDS011;38569;52.722;6.440;2023-07-31T01:01:16;7.72;;;3.75;;
52674;SDS011;38569;52.722;6.440;2023-07-31T01:03:42;6.07;;;2.97;;
52674;SDS011;38569;52.722;6.440;2023-07-31T01:06:17;5.18;;;2.45;;
52674;SDS011;38569;52.722;6.440;2023-07-31T01:09:09;3.75;;;2.75;;
52674;SDS011;38569;52.722;6.440;2023-07-31T01:11:50;4.70;;;2.83;;
52674;SDS011;38569;52.722;6.440;2023-07-31T01:14:18;12.00;;;3.33;;
52674;SDS011;38569;52.722;6.440;2023-07-31T01:16:44;5.15;;;2.60;;
52674;SDS011;38569;52.722;6.440;2023-07-31T01:19:10;5.43;;;2.28;;
52674;SDS011;38569;52.722;6.440;2023-07-31T01:27:59;3.10;;;2.03;;
52674;SDS011;38569;52.722;6.440;2023-07-31T01:30:34;3.78;;;2.42;;
52674;SDS011;38569;52.722;6.440;2023-07-31T01:33:06;5.55;;;2.75;;
52674;SDS011;38569;52.722;6.440;2023-07-31T01:35:33;6.13;;;2.80;;
52674;SDS011;38569;52.722;6.440;2023-07-31T01:38:00;3.75;;;2.17;;
52674;SDS011;38569;52.722;6.440;2023-07-31T01:40:25;5.13;;;2.42;;
52674;SDS011;38569;52.722;6.440;2023-07-31T01:42:51;5.57;;;2.67;;
52674;SDS011;38569;52.722;6.440;2023-07-31T01:45:17;3.80;;;2.33;;
52674;SDS011;38569;52.722;6.440;2023-07-31T01:47:43;3.90;;;2.40;;
52674;SDS011;38569;52.722;6.440;2023-07-31T01:50:08;3.38;;;2.60;;
52674;SDS011;38569;52.722;6.440;2023-07-31T01:52:34;2.97;;;1.77;;
52674;SDS011;38569;52.722;6.440;2023-07-31T01:55:00;3.60;;;2.17;;
52674;SDS011;38569;52.722;6.440;2023-07-31T01:57:26;4.13;;;2.45;;
52674;SDS011;38569;52.722;6.440;2023-07-31T01:59:52;2.95;;;2.20;;
52674;SDS011;38569;52.722;6.440;2023-07-31T02:02:20;3.75;;;2.15;;
52674;SDS011;38569;52.722;6.440;2023-07-31T02:04:48;4.35;;;2.10;;
52674;SDS011;38569;52.722;6.440;2023-07-31T02:07:13;3.75;;;2.30;;
52674;SDS011;38569;52.722;6.440;2023-07-31T02:09:39;3.25;;;2.20;;
52674;SDS011;38569;52.722;6.440;2023-07-31T02:12:05;3.53;;;2.58;;
52674;SDS011;38569;52.722;6.440;2023-07-31T02:14:33;4.47;;;2.20;;
52674;SDS011;38569;52.722;6.440;2023-07-31T02:16:59;3.28;;;2.08;;
52674;SDS011;38569;52.722;6.440;2023-07-31T02:19:25;3.10;;;2.17;;
52674;SDS011;38569;52.722;6.440;2023-07-31T02:21:51;6.43;;;2.60;;
52674;SDS011;38569;52.722;6.440;2023-07-31T02:24:16;3.60;;;2.38;;
52674;SDS011;38569;52.722;6.440;2023-07-31T02:26:42;4.03;;;2.90;;
52674;SDS011;38569;52.722;6.440;2023-07-31T02:29:08;5.65;;;3.25;;
52674;SDS011;38569;52.722;6.440;2023-07-31T02:31:34;4.75;;;2.20;;
52674;SDS011;38569;52.722;6.440;2023-07-31T02:33:59;7.20;;;3.03;;
52674;SDS011;38569;52.722;6.440;2023-07-31T02:36:25;3.58;;;2.40;;
52674;SDS011;38569;52.722;6.440;2023-07-31T02:38:51;4.97;;;1.90;;
52674;SDS011;38569;52.722;6.440;2023-07-31T02:41:17;6.35;;;2.85;;
52674;SDS011;38569;52.722;6.440;2023-07-31T02:43:42;5.68;;;3.05;;
52674;SDS011;38569;52.722;6.440;2023-07-31T02:46:08;4.50;;;2.97;;
52674;SDS011;38569;52.722;6.440;2023-07-31T02:48:34;5.60;;;3.33;;
52674;SDS011;38569;52.722;6.440;2023-07-31T02:51:00;4.15;;;2.63;;
52674;SDS011;38569;52.722;6.440;2023-07-31T02:53:25;3.25;;;2.58;;
52674;SDS011;38569;52.722;6.440;2023-07-31T02:55:51;7.45;;;3.55;;
52674;SDS011;38569;52.722;6.440;2023-07-31T02:58:17;6.50;;;3.47;;
52674;SDS011;38569;52.722;6.440;2023-07-31T03:00:43;3.65;;;2.60;;
52674;SDS011;38569;52.722;6.440;2023-07-31T03:03:10;7.25;;;3.20;;
52674;SDS011;38569;52.722;6.440;2023-07-31T03:05:36;6.13;;;3.30;;
52674;SDS011;38569;52.722;6.440;2023-07-31T03:08:01;6.22;;;3.22;;
52674;SDS011;38569;52.722;6.440;2023-07-31T03:10:27;7.40;;;3.30;;
52674;SDS011;38569;52.722;6.440;2023-07-31T03:12:53;5.20;;;3.03;;
52674;SDS011;38569;52.722;6.440;2023-07-31T03:15:18;8.10;;;3.22;;
52674;SDS011;38569;52.722;6.440;2023-07-31T03:17:44;7.57;;;3.50;;
52674;SDS011;38569;52.722;6.440;2023-07-31T03:20:10;8.40;;;4.57;;
52674;SDS011;38569;52.722;6.440;2023-07-31T03:22:36;5.18;;;3.38;;
52674;SDS011;38569;52.722;6.440;2023-07-31T03:25:02;4.47;;;3.13;;
52674;SDS011;38569;52.722;6.440;2023-07-31T03:27:28;4.30;;;3.30;;
52674;SDS011;38569;52.722;6.440;2023-07-31T03:29:53;4.78;;;3.22;;
52674;SDS011;38569;52.722;6.440;2023-07-31T03:32:19;7.07;;;3.47;;
52674;SDS011;38569;52.722;6.440;2023-07-31T03:34:45;4.15;;;2.72;;
52674;SDS011;38569;52.722;6.440;2023-07-31T03:37:11;6.70;;;3.15;;
52674;SDS011;38569;52.722;6.440;2023-07-31T03:39:36;5.93;;;2.97;;
52674;SDS011;38569;52.722;6.440;2023-07-31T03:42:02;5.70;;;3.40;;
52674;SDS011;38569;52.722;6.440;2023-07-31T03:44:28;6.80;;;3.15;;
52674;SDS011;38569;52.722;6.440;2023-07-31T03:46:54;10.95;;;3.35;;
52674;SDS011;38569;52.722;6.440;2023-07-31T03:49:19;11.23;;;3.70;;
52674;SDS011;38569;52.722;6.440;2023-07-31T03:51:45;7.95;;;3.90;;
52674;SDS011;38569;52.722;6.440;2023-07-31T03:54:11;11.32;;;4.15;;
52674;SDS011;38569;52.722;6.440;2023-07-31T03:56:38;10.98;;;3.72;;
52674;SDS011;38569;52.722;6.440;2023-07-31T03:59:04;8.43;;;3.85;;
52674;SDS011;38569;52.722;6.440;2023-07-31T04:01:29;8.02;;;3.70;;
52674;SDS011;38569;52.722;6.440;2023-07-31T04:03:55;5.80;;;3.53;;
52674;SDS011;38569;52.722;6.440;2023-07-31T04:06:21;8.30;;;4.05;;
52674;SDS011;38569;52.722;6.440;2023-07-31T04:08:47;12.25;;;4.32;;
52674;SDS011;38569;52.722;6.440;2023-07-31T04:11:12;13.25;;;4.22;;
52674;SDS011;38569;52.722;6.440;2023-07-31T04:13:38;9.32;;;3.72;;
52674;SDS011;38569;52.722;6.440;2023-07-31T04:16:04;11.52;;;3.92;;
52674;SDS011;38569;52.722;6.440;2023-07-31T04:18:30;16.40;;;5.03;;
52674;SDS011;38569;52.722;6.440;2023-07-31T04:20:56;21.85;;;4.85;;
52674;SDS011;38569;52.722;6.440;2023-07-31T04:23:23;12.30;;;4.63;;
52674;SDS011;38569;52.722;6.440;2023-07-31T04:25:49;19.13;;;7.05;;
52674;SDS011;38569;52.722;6.440;2023-07-31T04:28:15;33.15;;;7.57;;
52674;SDS011;38569;52.722;6.440;2023-07-31T04:30:41;32.63;;;8.38;;
52674;SDS011;38569;52.722;6.440;2023-07-31T04:33:06;40.35;;;9.43;;
52674;SDS011;38569;52.722;6.440;2023-07-31T04:35:32;41.45;;;9.93;;
52674;SDS011;38569;52.722;6.440;2023-07-31T04:37:58;28.35;;;9.70;;
52674;SDS011;38569;52.722;6.440;2023-07-31T04:40:24;33.20;;;9.57;;
52674;SDS011;38569;52.722;6.440;2023-07-31T04:42:50;28.98;;;10.32;;
52674;SDS011;38569;52.722;6.440;2023-07-31T04:45:15;39.95;;;12.35;;
52674;SDS011;38569;52.722;6.440;2023-07-31T04:47:41;31.85;;;10.32;;
52674;SDS011;38569;52.722;6.440;2023-07-31T04:50:07;30.92;;;10.40;;
52674;SDS011;38569;52.722;6.440;2023-07-31T04:52:33;35.72;;;11.18;;
52674;SDS011;38569;52.722;6.440;2023-07-31T04:54:58;44.38;;;11.98;;
52674;SDS011;38569;52.722;6.440;2023-07-31T04:57:24;37.97;;;11.80;;
52674;SDS011;38569;52.722;6.440;2023-07-31T04:59:51;30.05;;;10.35;;
52674;SDS011;38569;52.722;6.440;2023-07-31T05:02:17;35.80;;;10.32;;
52674;SDS011;38569;52.722;6.440;2023-07-31T05:04:42;42.08;;;12.38;;
52674;SDS011;38569;52.722;6.440;2023-07-31T05:07:08;43.20;;;12.32;;
52674;SDS011;38569;52.722;6.440;2023-07-31T05:09:34;39.83;;;13.05;;
52674;SDS011;38569;52.722;6.440;2023-07-31T05:11:59;53.63;;;14.50;;
52674;SDS011;38569;52.722;6.440;2023-07-31T05:14:25;38.83;;;12.25;;
52674;SDS011;38569;52.722;6.440;2023-07-31T05:16:51;48.30;;;14.05;;
52674;SDS011;38569;52.722;6.440;2023-07-31T05:19:17;42.40;;;13.07;;
52674;SDS011;38569;52.722;6.440;2023-07-31T05:21:43;41.10;;;12.80;;
52674;SDS011;38569;52.722;6.440;2023-07-31T05:24:09;40.53;;;12.45;;
52674;SDS011;38569;52.722;6.440;2023-07-31T05:26:35;40.47;;;13.15;;
52674;SDS011;38569;52.722;6.440;2023-07-31T05:29:01;45.72;;;13.40;;
52674;SDS011;38569;52.722;6.440;2023-07-31T05:31:26;39.65;;;13.38;;
52674;SDS011;38569;52.722;6.440;2023-07-31T05:33:52;45.15;;;14.05;;
52674;SDS011;38569;52.722;6.440;2023-07-31T05:36:18;40.22;;;13.52;;
52674;SDS011;38569;52.722;6.440;2023-07-31T05:38:43;48.50;;;15.10;;
52674;SDS011;38569;52.722;6.440;2023-07-31T05:41:11;42.05;;;13.20;;
52674;SDS011;38569;52.722;6.440;2023-07-31T05:43:40;41.65;;;13.48;;
52674;SDS011;38569;52.722;6.440;2023-07-31T05:46:06;42.60;;;13.02;;
52674;SDS011;38569;52.722;6.440;2023-07-31T05:48:32;37.83;;;13.13;;
52674;SDS011;38569;52.722;6.440;2023-07-31T05:50:59;41.28;;;12.98;;
52674;SDS011;38569;52.722;6.440;2023-07-31T05:53:25;46.17;;;13.68;;
52674;SDS011;38569;52.722;6.440;2023-07-31T05:55:51;35.50;;;11.63;;
52674;SDS011;38569;52.722;6.440;2023-07-31T05:58:16;52.80;;;12.38;;
52674;SDS011;38569;52.722;6.440;2023-07-31T06:00:42;37.88;;;11.65;;
52674;SDS011;38569;52.722;6.440;2023-07-31T06:03:08;35.63;;;12.75;;
52674;SDS011;38569;52.722;6.440;2023-07-31T06:05:33;37.67;;;11.38;;
52674;SDS011;38569;52.722;6.440;2023-07-31T06:07:59;27.60;;;10.70;;
52674;SDS011;38569;52.722;6.440;2023-07-31T06:10:26;42.28;;;13.05;;
52674;SDS011;38569;52.722;6.440;2023-07-31T06:12:51;37.17;;;12.30;;
52674;SDS011;38569;52.722;6.440;2023-07-31T06:15:17;33.55;;;11.25;;
52674;SDS011;38569;52.722;6.440;2023-07-31T06:17:44;38.33;;;14.10;;
52674;SDS011;38569;52.722;6.440;2023-07-31T06:20:10;36.03;;;13.05;;
52674;SDS011;38569;52.722;6.440;2023-07-31T06:22:36;36.30;;;14.38;;
52674;SDS011;38569;52.722;6.440;2023-07-31T06:25:01;40.97;;;13.80;;
52674;SDS011;38569;52.722;6.440;2023-07-31T06:27:28;44.65;;;12.82;;
52674;SDS011;38569;52.722;6.440;2023-07-31T06:29:53;32.83;;;12.98;;
52674;SDS011;38569;52.722;6.440;2023-07-31T06:32:19;37.63;;;13.20;;
52674;SDS011;38569;52.722;6.440;2023-07-31T06:34:45;34.55;;;12.65;;
52674;SDS011;38569;52.722;6.440;2023-07-31T06:37:10;37.08;;;16.05;;
52674;SDS011;38569;52.722;6.440;2023-07-31T06:39:36;38.80;;;13.50;;
52674;SDS011;38569;52.722;6.440;2023-07-31T06:42:02;35.95;;;14.30;;
52674;SDS011;38569;52.722;6.440;2023-07-31T06:44:29;32.50;;;12.73;;
52674;SDS011;38569;52.722;6.440;2023-07-31T06:46:54;36.90;;;13.93;;
52674;SDS011;38569;52.722;6.440;2023-07-31T06:49:20;40.58;;;12.95;;
52674;SDS011;38569;52.722;6.440;2023-07-31T06:51:46;26.85;;;11.57;;
52674;SDS011;38569;52.722;6.440;2023-07-31T06:54:11;27.02;;;10.90;;
52674;SDS011;38569;52.722;6.440;2023-07-31T06:56:37;37.03;;;11.95;;
52674;SDS011;38569;52.722;6.440;2023-07-31T06:59:03;30.58;;;11.32;;
52674;SDS011;38569;52.722;6.440;2023-07-31T07:01:29;34.05;;;14.88;;
52674;SDS011;38569;52.722;6.440;2023-07-31T07:03:54;28.73;;;11.40;;
52674;SDS011;38569;52.722;6.440;2023-07-31T07:06:22;24.73;;;10.60;;
52674;SDS011;38569;52.722;6.440;2023-07-31T07:08:48;22.98;;;10.10;;
52674;SDS011;38569;52.722;6.440;2023-07-31T07:11:14;17.25;;;8.50;;
52674;SDS011;38569;52.722;6.440;2023-07-31T07:13:39;20.48;;;8.50;;
52674;SDS011;38569;52.722;6.440;2023-07-31T07:16:05;17.55;;;8.43;;
52674;SDS011;38569;52.722;6.440;2023-07-31T07:18:31;19.55;;;8.57;;
52674;SDS011;38569;52.722;6.440;2023-07-31T07:20:57;25.20;;;9.02;;
52674;SDS011;38569;52.722;6.440;2023-07-31T07:23:23;25.60;;;8.73;;
52674;SDS011;38569;52.722;6.440;2023-07-31T07:25:49;18.13;;;7.20;;
52674;SDS011;38569;52.722;6.440;2023-07-31T07:28:16;22.73;;;7.88;;
52674;SDS011;38569;52.722;6.440;2023-07-31T07:30:42;19.17;;;7.60;;
52674;SDS011;38569;52.722;6.440;2023-07-31T07:33:07;15.90;;;7.32;;
52674;SDS011;38569;52.722;6.440;2023-07-31T07:35:34;19.27;;;6.63;;
52674;SDS011;38569;52.722;6.440;2023-07-31T07:38:00;13.18;;;7.05;;
52674;SDS011;38569;52.722;6.440;2023-07-31T07:40:27;17.98;;;6.82;;
52674;SDS011;38569;52.722;6.440;2023-07-31T07:42:52;14.60;;;7.07;;
52674;SDS011;38569;52.722;6.440;2023-07-31T07:45:18;15.43;;;5.93;;
52674;SDS011;38569;52.722;6.440;2023-07-31T07:47:44;10.77;;;5.72;;
52674;SDS011;38569;52.722;6.440;2023-07-31T07:50:09;11.82;;;5.20;;
52674;SDS011;38569;52.722;6.440;2023-07-31T07:52:35;12.13;;;5.68;;
52674;SDS011;38569;52.722;6.440;2023-07-31T07:55:01;12.95;;;5.72;;
52674;SDS011;38569;52.722;6.440;2023-07-31T07:57:26;9.68;;;6.00;;
52674;SDS011;38569;52.722;6.440;2023-07-31T07:59:52;16.05;;;5.88;;
52674;SDS011;38569;52.722;6.440;2023-07-31T08:02:18;11.55;;;5.25;;
52674;SDS011;38569;52.722;6.440;2023-07-31T08:04:44;7.60;;;4.38;;
52674;SDS011;38569;52.722;6.440;2023-07-31T08:07:13;11.05;;;5.60;;
52674;SDS011;38569;52.722;6.440;2023-07-31T08:09:39;12.02;;;6.05;;
52674;SDS011;38569;52.722;6.440;2023-07-31T08:12:05;13.63;;;6.35;;
52674;SDS011;38569;52.722;6.440;2023-07-31T08:14:31;9.90;;;5.05;;
52674;SDS011;38569;52.722;6.440;2023-07-31T08:16:57;8.77;;;5.13;;
52674;SDS011;38569;52.722;6.440;2023-07-31T08:19:22;6.90;;;4.30;;
52674;SDS011;38569;52.722;6.440;2023-07-31T08:21:48;11.40;;;5.65;;
52674;SDS011;38569;52.722;6.440;2023-07-31T08:24:14;8.93;;;5.68;;
52674;SDS011;38569;52.722;6.440;2023-07-31T08:26:40;8.57;;;4.32;;
52674;SDS011;38569;52.722;6.440;2023-07-31T08:29:05;9.15;;;5.20;;
52674;SDS011;38569;52.722;6.440;2023-07-31T08:31:31;9.35;;;5.20;;
52674;SDS011;38569;52.722;6.440;2023-07-31T08:33:57;6.72;;;4.35;;
52674;SDS011;38569;52.722;6.440;2023-07-31T08:36:22;10.38;;;4.35;;
52674;SDS011;38569;52.722;6.440;2023-07-31T08:38:48;6.10;;;4.43;;
52674;SDS011;38569;52.722;6.440;2023-07-31T08:41:15;7.43;;;4.20;;
52674;SDS011;38569;52.722;6.440;2023-07-31T08:43:42;8.18;;;4.38;;
52674;SDS011;38569;52.722;6.440;2023-07-31T08:46:10;7.75;;;3.45;;
52674;SDS011;38569;52.722;6.440;2023-07-31T08:48:39;7.28;;;4.47;;
52674;SDS011;38569;52.722;6.440;2023-07-31T08:51:07;7.72;;;4.13;;
52674;SDS011;38569;52.722;6.440;2023-07-31T08:53:33;7.00;;;3.90;;
52674;SDS011;38569;52.722;6.440;2023-07-31T08:55:59;6.57;;;3.17;;
52674;SDS011;38569;52.722;6.440;2023-07-31T08:58:25;5.72;;;3.72;;
52674;SDS011;38569;52.722;6.440;2023-07-31T09:00:55;5.75;;;3.50;;
52674;SDS011;38569;52.722;6.440;2023-07-31T09:03:22;4.80;;;3.47;;
52674;SDS011;38569;52.722;6.440;2023-07-31T09:05:49;5.30;;;3.15;;
52674;SDS011;38569;52.722;6.440;2023-07-31T09:08:18;4.30;;;2.47;;
52674;SDS011;38569;52.722;6.440;2023-07-31T09:10:46;3.58;;;2.55;;
52674;SDS011;38569;52.722;6.440;2023-07-31T09:13:12;5.40;;;3.10;;
52674;SDS011;38569;52.722;6.440;2023-07-31T09:15:39;5.22;;;2.92;;
52674;SDS011;38569;52.722;6.440;2023-07-31T09:18:07;5.13;;;2.70;;
52674;SDS011;38569;52.722;6.440;2023-07-31T09:20:33;6.45;;;3.05;;
52674;SDS011;38569;52.722;6.440;2023-07-31T09:23:04;3.60;;;2.38;;
52674;SDS011;38569;52.722;6.440;2023-07-31T09:25:35;3.70;;;2.17;;
52674;SDS011;38569;52.722;6.440;2023-07-31T09:28:01;3.72;;;2.33;;
52674;SDS011;38569;52.722;6.440;2023-07-31T09:30:29;6.80;;;3.13;;
52674;SDS011;38569;52.722;6.440;2023-07-31T09:33:02;4.55;;;2.60;;
52674;SDS011;38569;52.722;6.440;2023-07-31T09:35:32;3.10;;;2.40;;
52674;SDS011;38569;52.722;6.440;2023-07-31T09:37:59;9.82;;;2.80;;
52674;SDS011;38569;52.722;6.440;2023-07-31T09:40:32;3.03;;;2.35;;
52674;SDS011;38569;52.722;6.440;2023-07-31T09:43:06;3.53;;;2.47;;
52674;SDS011;38569;52.722;6.440;2023-07-31T09:45:39;3.33;;;2.40;;
52674;SDS011;38569;52.722;6.440;2023-07-31T09:48:16;5.35;;;2.83;;
52674;SDS011;38569;52.722;6.440;2023-07-31T09:50:43;2.85;;;1.90;;
52674;SDS011;38569;52.722;6.440;2023-07-31T09:53:10;2.55;;;2.10;;
52674;SDS011;38569;52.722;6.440;2023-07-31T09:55:37;3.40;;;2.20;;
52674;SDS011;38569;52.722;6.440;2023-07-31T09:58:05;3.15;;;2.28;;
52674;SDS011;38569;52.722;6.440;2023-07-31T10:00:32;4.47;;;2.60;;
52674;SDS011;38569;52.722;6.440;2023-07-31T10:02:59;3.42;;;2.35;;
52674;SDS011;38569;52.722;6.440;2023-07-31T10:05:29;2.90;;;2.03;;
52674;SDS011;38569;52.722;6.440;2023-07-31T10:07:59;4.00;;;2.90;;
52674;SDS011;38569;52.722;6.440;2023-07-31T10:10:25;3.80;;;2.60;;
52674;SDS011;38569;52.722;6.440;2023-07-31T10:12:53;3.10;;;2.50;;
52674;SDS011;38569;52.722;6.440;2023-07-31T10:15:20;4.32;;;2.65;;
52674;SDS011;38569;52.722;6.440;2023-07-31T10:17:47;5.85;;;2.50;;
52674;SDS011;38569;52.722;6.440;2023-07-31T10:20:14;2.67;;;2.28;;
52674;SDS011;38569;52.722;6.440;2023-07-31T10:22:41;2.22;;;1.85;;
52674;SDS011;38569;52.722;6.440;2023-07-31T10:25:11;3.25;;;1.90;;
52674;SDS011;38569;52.722;6.440;2023-07-31T10:27:38;2.85;;;2.20;;
52674;SDS011;38569;52.722;6.440;2023-07-31T10:30:04;2.75;;;2.35;;
52674;SDS011;38569;52.722;6.440;2023-07-31T10:32:33;3.45;;;1.85;;
52674;SDS011;38569;52.722;6.440;2023-07-31T10:35:00;2.97;;;2.00;;
52674;SDS011;38569;52.722;6.440;2023-07-31T10:37:29;2.25;;;2.05;;
52674;SDS011;38569;52.722;6.440;2023-07-31T10:40:04;2.50;;;2.20;;
52674;SDS011;38569;52.722;6.440;2023-07-31T10:42:33;2.72;;;2.00;;
52674;SDS011;38569;52.722;6.440;2023-07-31T10:45:10;2.72;;;1.65;;
52674;SDS011;38569;52.722;6.440;2023-07-31T10:52:50;1.90;;;1.30;;
52674;SDS011;38569;52.722;6.440;2023-07-31T10:58:06;2.13;;;1.65;;
52674;SDS011;38569;52.722;6.440;2023-07-31T11:00:33;2.70;;;1.95;;
52674;SDS011;38569;52.722;6.440;2023-07-31T11:03:00;1.90;;;1.70;;
52674;SDS011;38569;52.722;6.440;2023-07-31T11:13:28;3.55;;;1.60;;
52674;SDS011;38569;52.722;6.440;2023-07-31T11:15:59;1.63;;;1.10;;
52674;SDS011;38569;52.722;6.440;2023-07-31T11:18:28;1.35;;;1.20;;
52674;SDS011;38569;52.722;6.440;2023-07-31T11:20:54;4.32;;;1.50;;
52674;SDS011;38569;52.722;6.440;2023-07-31T11:23:19;1.27;;;0.95;;
52674;SDS011;38569;52.722;6.440;2023-07-31T11:25:46;1.35;;;1.08;;
52674;SDS011;38569;52.722;6.440;2023-07-31T11:28:13;1.00;;;0.77;;
52674;SDS011;38569;52.722;6.440;2023-07-31T11:30:41;0.85;;;0.70;;
52674;SDS011;38569;52.722;6.440;2023-07-31T11:33:09;1.00;;;0.85;;
52674;SDS011;38569;52.722;6.440;2023-07-31T11:35:40;1.63;;;0.75;;
52674;SDS011;38569;52.722;6.440;2023-07-31T11:38:24;1.30;;;0.80;;
52674;SDS011;38569;52.722;6.440;2023-07-31T11:40:52;0.75;;;0.60;;
52674;SDS011;38569;52.722;6.440;2023-07-31T11:43:19;2.90;;;1.05;;
52674;SDS011;38569;52.722;6.440;2023-07-31T11:45:50;4.18;;;0.93;;
52674;SDS011;38569;52.722;6.440;2023-07-31T11:48:18;2.35;;;1.10;;
52674;SDS011;38569;52.722;6.440;2023-07-31T11:50:44;2.35;;;1.25;;
52674;SDS011;38569;52.722;6.440;2023-07-31T11:53:11;5.15;;;1.58;;
52674;SDS011;38569;52.722;6.440;2023-07-31T11:55:38;5.80;;;2.03;;
52674;SDS011;38569;52.722;6.440;2023-07-31T11:58:04;5.60;;;1.42;;
52674;SDS011;38569;52.722;6.440;2023-07-31T12:00:30;3.70;;;2.10;;
52674;SDS011;38569;52.722;6.440;2023-07-31T12:02:56;1.67;;;1.08;;
52674;SDS011;38569;52.722;6.440;2023-07-31T12:05:22;4.25;;;1.42;;
52674;SDS011;38569;52.722;6.440;2023-07-31T12:07:52;2.00;;;1.80;;
52674;SDS011;38569;52.722;6.440;2023-07-31T12:10:29;4.30;;;2.17;;
52674;SDS011;38569;52.722;6.440;2023-07-31T12:15:28;7.95;;;2.65;;
52674;SDS011;38569;52.722;6.440;2023-07-31T12:17:58;4.65;;;2.15;;
52674;SDS011;38569;52.722;6.440;2023-07-31T12:20:24;3.92;;;2.50;;
52674;SDS011;38569;52.722;6.440;2023-07-31T12:22:49;4.95;;;2.47;;
52674;SDS011;38569;52.722;6.440;2023-07-31T12:25:15;5.78;;;2.83;;
52674;SDS011;38569;52.722;6.440;2023-07-31T12:27:44;4.97;;;2.70;;
52674;SDS011;38569;52.722;6.440;2023-07-31T12:33:14;7.57;;;3.30;;
52674;SDS011;38569;52.722;6.440;2023-07-31T12:35:41;7.80;;;3.45;;
52674;SDS011;38569;52.722;6.440;2023-07-31T12:38:09;8.40;;;2.78;;
52674;SDS011;38569;52.722;6.440;2023-07-31T12:40:36;8.68;;;2.92;;
52674;SDS011;38569;52.722;6.440;2023-07-31T12:43:05;8.68;;;2.70;;
52674;SDS011;38569;52.722;6.440;2023-07-31T12:45:32;9.38;;;3.40;;
52674;SDS011;38569;52.722;6.440;2023-07-31T12:47:59;6.50;;;2.83;;
52674;SDS011;38569;52.722;6.440;2023-07-31T12:50:25;6.03;;;3.03;;
52674;SDS011;38569;52.722;6.440;2023-07-31T12:52:51;7.72;;;2.85;;
52674;SDS011;38569;52.722;6.440;2023-07-31T12:55:18;7.47;;;2.60;;
52674;SDS011;38569;52.722;6.440;2023-07-31T12:57:44;2.85;;;1.92;;
52674;SDS011;38569;52.722;6.440;2023-07-31T13:00:10;6.43;;;2.40;;
52674;SDS011;38569;52.722;6.440;2023-07-31T13:02:37;3.78;;;2.10;;
52674;SDS011;38569;52.722;6.440;2023-07-31T13:05:03;7.47;;;2.97;;
52674;SDS011;38569;52.722;6.440;2023-07-31T13:07:30;6.40;;;2.58;;
52674;SDS011;38569;52.722;6.440;2023-07-31T13:09:56;6.53;;;2.50;;
52674;SDS011;38569;52.722;6.440;2023-07-31T13:12:21;7.47;;;2.83;;
52674;SDS011;38569;52.722;6.440;2023-07-31T13:14:47;8.65;;;2.88;;
52674;SDS011;38569;52.722;6.440;2023-07-31T13:17:12;5.38;;;2.50;;
52674;SDS011;38569;52.722;6.440;2023-07-31T13:19:38;6.15;;;2.50;;
52674;SDS011;38569;52.722;6.440;2023-07-31T13:22:04;7.85;;;2.72;;
52674;SDS011;38569;52.722;6.440;2023-07-31T13:24:29;4.95;;;2.80;;
52674;SDS011;38569;52.722;6.440;2023-07-31T13:26:56;7.85;;;2.88;;
52674;SDS011;38569;52.722;6.440;2023-07-31T13:29:22;5.53;;;2.10;;
52674;SDS011;38569;52.722;6.440;2023-07-31T13:31:48;6.88;;;2.45;;
52674;SDS011;38569;52.722;6.440;2023-07-31T13:34:14;5.13;;;2.58;;
52674;SDS011;38569;52.722;6.440;2023-07-31T13:36:40;11.45;;;3.10;;
52674;SDS011;38569;52.722;6.440;2023-07-31T13:39:06;8.82;;;3.80;;
52674;SDS011;38569;52.722;6.440;2023-07-31T13:41:32;11.57;;;3.97;;
52674;SDS011;38569;52.722;6.440;2023-07-31T13:43:58;8.35;;;3.70;;
52674;SDS011;38569;52.722;6.440;2023-07-31T13:46:24;35.55;;;6.18;;
52674;SDS011;38569;52.722;6.440;2023-07-31T13:48:50;145.13;;;12.93;;
52674;SDS011;38569;52.722;6.440;2023-07-31T13:51:19;12.30;;;6.22;;
52674;SDS011;38569;52.722;6.440;2023-07-31T13:53:45;16.38;;;6.18;;
52674;SDS011;38569;52.722;6.440;2023-07-31T13:56:11;10.98;;;5.80;;
52674;SDS011;38569;52.722;6.440;2023-07-31T13:58:36;12.13;;;6.15;;
52674;SDS011;38569;52.722;6.440;2023-07-31T14:01:02;12.05;;;5.22;;
52674;SDS011;38569;52.722;6.440;2023-07-31T14:03:28;12.40;;;5.45;;
52674;SDS011;38569;52.722;6.440;2023-07-31T14:05:54;9.65;;;5.18;;
52674;SDS011;38569;52.722;6.440;2023-07-31T14:08:20;9.82;;;4.88;;
52674;SDS011;38569;52.722;6.440;2023-07-31T14:10:46;12.90;;;5.68;;
52674;SDS011;38569;52.722;6.440;2023-07-31T14:13:12;10.70;;;5.88;;
52674;SDS011;38569;52.722;6.440;2023-07-31T14:15:38;9.60;;;5.03;;
52674;SDS011;38569;52.722;6.440;2023-07-31T14:18:06;11.50;;;5.15;;
52674;SDS011;38569;52.722;6.440;2023-07-31T14:20:32;7.65;;;4.45;;
52674;SDS011;38569;52.722;6.440;2023-07-31T14:22:58;19.23;;;6.07;;
52674;SDS011;38569;52.722;6.440;2023-07-31T14:25:24;11.07;;;4.63;;
52674;SDS011;38569;52.722;6.440;2023-07-31T14:27:50;10.35;;;4.97;;
52674;SDS011;38569;52.722;6.440;2023-07-31T14:30:15;12.15;;;5.22;;
52674;SDS011;38569;52.722;6.440;2023-07-31T14:32:43;8.55;;;4.65;;
52674;SDS011;38569;52.722;6.440;2023-07-31T14:35:09;9.50;;;5.30;;
52674;SDS011;38569;52.722;6.440;2023-07-31T14:37:41;9.32;;;4.75;;
52674;SDS011;38569;52.722;6.440;2023-07-31T14:40:10;8.90;;;4.90;;
52674;SDS011;38569;52.722;6.440;2023-07-31T14:42:37;9.52;;;4.75;;
52674;SDS011;38569;52.722;6.440;2023-07-31T14:45:04;8.48;;;4.43;;
52674;SDS011;38569;52.722;6.440;2023-07-31T14:47:30;7.15;;;3.33;;
52674;SDS011;38569;52.722;6.440;2023-07-31T14:49:57;10.10;;;3.75;;
52674;SDS011;38569;52.722;6.440;2023-07-31T14:52:23;7.97;;;4.40;;
52674;SDS011;38569;52.722;6.440;2023-07-31T14:54:49;7.18;;;3.88;;
52674;SDS011;38569;52.722;6.440;2023-07-31T14:57:15;13.18;;;4.97;;
52674;SDS011;38569;52.722;6.440;2023-07-31T14:59:41;6.35;;;4.63;;
52674;SDS011;38569;52.722;6.440;2023-07-31T15:02:08;9.73;;;4.65;;
52674;SDS011;38569;52.722;6.440;2023-07-31T15:04:35;9.27;;;4.70;;